createdAt,value
2022-09-28T00:01:18.454Z,90.07
2022-09-28T00:03:45.975Z,90.11
2022-09-28T00:06:14.378Z,90.55
2022-09-28T00:08:42.242Z,90.88
2022-09-28T00:11:13.654Z,91.12
2022-09-28T00:13:40.528Z,91.05
2022-09-28T00:16:10.535Z,91.10
2022-09-28T00:18:37.341Z,91.45
2022-09-28T00:21:09.304Z,91.49
2022-09-28T00:23:56.398Z,91.69
2022-09-28T00:26:23.537Z,91.99
2022-09-28T00:28:59.059Z,92.25
2022-09-28T00:31:32.546Z,92.37
2022-09-28T00:34:00.403Z,92.47
2022-09-28T00:36:28.588Z,93.03
2022-09-28T00:38:58.781Z,93.03
2022-09-28T00:41:26.847Z,93.17
2022-09-28T00:43:54.606Z,93.28
2022-09-28T00:46:34.161Z,93.25
2022-09-28T00:49:04.102Z,93.56
2022-09-28T00:51:31.860Z,93.66
2022-09-28T00:53:59.517Z,93.89
2022-09-28T00:56:28.384Z,93.73
2022-09-28T00:58:54.969Z,93.76
2022-09-28T01:01:21.697Z,93.67
2022-09-28T01:03:48.719Z,93.83
2022-09-28T01:06:18.678Z,93.90
2022-09-28T01:08:45.825Z,93.62
2022-09-28T01:11:13.244Z,93.76
2022-09-28T01:13:40.269Z,93.78
2022-09-28T01:16:28.988Z,93.63
2022-09-28T01:19:08.700Z,93.73
2022-09-28T01:21:50.304Z,93.95
2022-09-28T01:24:40.300Z,93.73
2022-09-28T01:27:28.500Z,93.58
2022-09-28T01:30:05.776Z,93.60
2022-09-28T01:32:35.078Z,93.56
2022-09-28T01:35:08.810Z,93.23
2022-09-28T01:37:43.812Z,93.26
2022-09-28T01:40:12.051Z,93.34
2022-09-28T01:42:39.894Z,93.21
2022-09-28T01:45:12.321Z,93.57
2022-09-28T01:47:40.534Z,93.43
2022-09-28T01:50:14.692Z,93.22
2022-09-28T01:52:50.044Z,92.85
2022-09-28T01:55:29.014Z,92.82
2022-09-28T01:58:00.690Z,92.71
2022-09-28T02:00:27.969Z,92.44
2022-09-28T02:02:59.415Z,92.54
2022-09-28T02:05:39.343Z,92.70
2022-09-28T02:08:09.859Z,92.60
2022-09-28T02:11:15.335Z,92.49
2022-09-28T02:13:51.364Z,92.40
2022-09-28T02:16:40.752Z,92.33
2022-09-28T02:19:11.214Z,92.04
2022-09-28T02:21:38.139Z,91.66
2022-09-28T02:24:11.523Z,91.55
2022-09-28T02:26:41.794Z,91.61
2022-09-28T02:29:08.339Z,91.47
2022-09-28T02:31:35.571Z,91.43
2022-09-28T02:34:02.458Z,91.29
2022-09-28T02:36:29.853Z,91.15
2022-09-28T02:38:58.214Z,90.99
2022-09-28T02:41:33.766Z,91.17
2022-09-28T02:44:26.514Z,91.32
2022-09-28T02:47:00.251Z,91.15
2022-09-28T02:49:46.915Z,90.93
2022-09-28T02:52:38.611Z,90.87
2022-09-28T02:55:10.917Z,90.94
2022-09-28T02:57:48.352Z,90.71
2022-09-28T03:00:18.776Z,90.64
2022-09-28T03:03:08.057Z,90.83
2022-09-28T03:05:47.024Z,90.61
2022-09-28T03:08:27.800Z,90.57
2022-09-28T03:10:59.168Z,90.70
2022-09-28T03:13:26.813Z,90.71
2022-09-28T03:16:27.383Z,90.91
2022-09-28T03:18:54.224Z,91.18
2022-09-28T03:21:20.735Z,91.08
2022-09-28T03:23:47.776Z,90.98
2022-09-28T03:26:16.715Z,91.00
2022-09-28T03:28:44.211Z,91.08
2022-09-28T03:31:16.095Z,90.88
2022-09-28T03:33:42.524Z,90.90
2022-09-28T03:36:09.627Z,90.82
2022-09-28T03:38:36.926Z,90.79
2022-09-28T03:41:03.452Z,90.45
2022-09-28T03:43:34.599Z,91.04
2022-09-28T03:46:02.602Z,91.19
2022-09-28T03:48:34.513Z,91.02
2022-09-28T03:51:03.297Z,91.13
2022-09-28T03:53:30.060Z,91.16
2022-09-28T03:56:05.425Z,91.16
2022-09-28T03:58:32.833Z,91.19
2022-09-28T04:01:04.357Z,91.07
2022-09-28T04:03:31.249Z,91.09
2022-09-28T04:05:58.081Z,90.97
2022-09-28T04:08:24.648Z,91.16
2022-09-28T04:10:51.072Z,91.09
2022-09-28T04:13:18.511Z,90.62
2022-09-28T04:15:52.773Z,90.81
2022-09-28T04:18:20.467Z,90.98
2022-09-28T04:21:15.237Z,91.17
2022-09-28T04:23:48.760Z,91.23
2022-09-28T04:26:26.256Z,91.22
2022-09-28T04:29:11.447Z,91.36
2022-09-28T04:31:42.335Z,91.51
2022-09-28T04:34:09.019Z,91.64
2022-09-28T04:36:37.059Z,91.71
2022-09-28T04:39:03.857Z,91.99
2022-09-28T04:41:31.536Z,92.00
2022-09-28T04:43:57.944Z,91.94
2022-09-28T04:46:25.988Z,92.15
2022-09-28T04:49:04.232Z,92.29
2022-09-28T06:49:17.300Z,95.04
2022-09-28T06:52:04.603Z,95.36
2022-09-28T06:54:54.188Z,95.55
2022-09-28T06:57:22.914Z,95.40
2022-09-28T06:59:49.436Z,95.09
2022-09-28T07:02:15.980Z,94.69
2022-09-28T07:04:59.452Z,94.16
2022-09-28T07:07:40.472Z,93.68
2022-09-28T07:10:45.176Z,93.44
2022-09-28T07:13:48.073Z,92.88
2022-09-28T07:16:12.431Z,92.66
2022-09-28T07:18:38.907Z,92.27
2022-09-28T07:21:07.788Z,92.34
2022-09-28T07:23:46.174Z,91.63
2022-09-28T07:26:24.587Z,91.25
2022-09-28T07:28:57.156Z,90.96
2022-09-28T07:31:33.674Z,90.86
2022-09-28T07:34:19.085Z,90.00
2022-09-28T07:36:59.530Z,89.42
2022-09-28T07:39:25.983Z,89.30
2022-09-28T07:41:54.386Z,89.08
2022-09-28T07:44:23.071Z,88.57
2022-09-28T07:46:53.207Z,88.91
2022-09-28T07:49:30.545Z,88.65
2022-09-28T07:52:13.717Z,88.21
2022-09-28T07:55:04.600Z,87.10
2022-09-28T07:58:01.703Z,86.76
2022-09-28T08:01:06.764Z,85.99
2022-09-28T08:03:35.145Z,85.94
2022-09-28T08:06:04.840Z,86.14
2022-09-28T08:08:33.610Z,85.90
2022-09-28T08:11:00.069Z,85.70
2022-09-28T08:14:04.826Z,85.78
2022-09-28T08:16:52.032Z,85.38
2022-09-28T08:19:52.269Z,83.61
2022-09-28T08:22:19.439Z,82.76
2022-09-28T08:24:49.270Z,82.75
2022-09-28T08:27:16.884Z,82.52
2022-09-28T08:29:43.492Z,82.46
2022-09-28T08:32:29.832Z,82.24
2022-09-28T08:35:26.151Z,82.72
2022-09-28T08:38:10.795Z,82.44
2022-09-28T08:41:34.752Z,82.22
2022-09-28T08:44:24.467Z,81.45
2022-09-28T08:47:35.688Z,80.89
2022-09-28T08:50:24.141Z,80.35
2022-09-28T08:53:06.036Z,80.02
2022-09-28T08:55:50.355Z,79.81
2022-09-28T08:58:38.093Z,79.32
2022-09-28T09:01:07.760Z,79.40
2022-09-28T09:03:39.276Z,79.30
2022-09-28T09:06:44.459Z,79.22
2022-09-28T09:09:32.153Z,78.43
2022-09-28T09:12:08.448Z,77.55
2022-09-28T09:14:52.020Z,77.53
2022-09-28T09:17:52.312Z,77.49
2022-09-28T09:20:45.372Z,77.02
2022-09-28T09:23:40.809Z,76.91
2022-09-28T09:26:25.281Z,76.84
2022-09-28T09:29:11.558Z,76.80
2022-09-28T09:32:08.182Z,76.42
2022-09-28T09:35:07.580Z,75.54
2022-09-28T09:37:42.654Z,75.23
2022-09-28T09:41:20.588Z,75.32
2022-09-28T09:44:30.836Z,75.47
2022-09-28T09:47:46.735Z,74.61
2022-09-28T09:50:50.604Z,73.69
2022-09-28T09:53:27.187Z,73.98
2022-09-28T09:55:57.251Z,73.99
2022-09-28T09:58:42.413Z,74.46
2022-09-28T10:01:32.663Z,73.94
2022-09-28T10:04:24.808Z,73.28
2022-09-28T10:06:58.538Z,73.44
2022-09-28T10:09:28.683Z,73.06
2022-09-28T10:12:04.760Z,72.68
2022-09-28T10:14:31.509Z,72.07
2022-09-28T10:17:03.651Z,72.15
2022-09-28T10:19:58.787Z,72.22
2022-09-28T10:22:43.857Z,72.07
2022-09-28T10:25:15.282Z,71.99
2022-09-28T10:27:45.976Z,71.92
2022-09-28T10:30:17.614Z,71.24
2022-09-28T10:32:47.053Z,70.76
2022-09-28T10:35:21.972Z,70.67
2022-09-28T10:38:03.116Z,69.91
2022-09-28T10:41:01.059Z,69.35
2022-09-28T10:44:08.770Z,69.05
2022-09-28T10:46:42.100Z,68.93
2022-09-28T10:49:17.640Z,67.40
2022-09-28T10:51:58.732Z,65.58
2022-09-28T10:54:34.064Z,65.91
2022-09-28T10:57:00.756Z,65.90
2022-09-28T10:59:41.497Z,65.56
2022-09-28T11:02:35.720Z,65.24
2022-09-28T11:05:21.975Z,65.72
2022-09-28T11:07:49.732Z,66.42
2022-09-28T11:10:26.236Z,66.91
2022-09-28T11:12:57.202Z,67.25
2022-09-28T11:15:27.013Z,67.64
2022-09-28T11:17:53.530Z,67.47
2022-09-28T11:20:27.473Z,67.05
2022-09-28T11:22:56.452Z,66.94
2022-09-28T11:25:29.005Z,67.04
2022-09-28T11:28:01.456Z,66.71
2022-09-28T11:30:32.696Z,66.42
2022-09-28T11:33:29.608Z,66.76
2022-09-28T11:36:48.189Z,66.03
2022-09-28T11:39:39.427Z,66.56
2022-09-28T11:42:16.579Z,65.78
2022-09-28T11:44:46.347Z,65.27
2022-09-28T11:47:44.337Z,65.27
2022-09-28T11:50:35.683Z,64.62
2022-09-28T11:53:18.574Z,65.18
2022-09-28T11:55:59.848Z,64.80
2022-09-28T11:58:32.856Z,64.41
2022-09-28T12:01:18.887Z,63.07
2022-09-28T12:04:09.569Z,62.98
2022-09-28T12:06:45.193Z,62.80
2022-09-28T12:09:25.460Z,62.62
2022-09-28T12:12:03.473Z,61.41
2022-09-28T12:14:45.558Z,61.37
2022-09-28T12:17:25.726Z,60.58
2022-09-28T12:19:59.513Z,60.54
2022-09-28T12:22:32.790Z,61.04
2022-09-28T12:24:59.293Z,60.88
2022-09-28T12:27:42.877Z,60.33
2022-09-28T12:30:19.227Z,60.84
2022-09-28T12:32:53.340Z,60.86
2022-09-28T12:35:31.522Z,60.70
2022-09-28T12:38:10.066Z,60.39
2022-09-28T12:40:47.458Z,61.10
2022-09-28T12:43:31.027Z,60.70
2022-09-28T12:46:12.083Z,61.00
2022-09-28T12:49:15.880Z,61.63
2022-09-28T12:51:49.598Z,60.76
2022-09-28T12:54:34.301Z,59.97
2022-09-28T12:57:34.431Z,61.38
2022-09-28T13:00:10.660Z,61.85
2022-09-28T13:02:50.742Z,62.22
2022-09-28T13:05:17.044Z,62.20
2022-09-28T13:07:55.672Z,61.82
2022-09-28T13:10:33.758Z,62.38
2022-09-28T13:13:15.504Z,62.13
2022-09-28T13:15:50.934Z,62.41
2022-09-28T13:18:27.108Z,62.09
2022-09-28T13:21:17.214Z,61.99
2022-09-28T13:23:48.531Z,61.79
2022-09-28T13:26:36.328Z,61.69
2022-09-28T13:29:14.502Z,62.30
2022-09-28T13:31:47.419Z,62.27
2022-09-28T13:34:20.490Z,62.35
2022-09-28T13:37:21.739Z,61.43
2022-09-28T13:39:53.042Z,61.45
2022-09-28T13:42:34.971Z,61.36
2022-09-28T13:45:10.377Z,61.08
2022-09-28T13:48:01.014Z,60.63
2022-09-28T13:51:01.356Z,60.76
2022-09-28T13:53:51.266Z,59.88
2022-09-28T13:56:31.500Z,59.50
2022-09-28T13:59:10.910Z,59.46
2022-09-28T14:02:06.898Z,59.35
2022-09-28T14:04:57.726Z,59.66
2022-09-28T14:07:25.105Z,59.47
2022-09-28T14:10:16.948Z,59.26
2022-09-28T14:12:48.382Z,59.33
2022-09-28T14:15:35.000Z,59.39
2022-09-28T14:18:16.548Z,58.47
2022-09-28T14:20:50.707Z,58.18
2022-09-28T14:23:40.087Z,58.48
2022-09-28T14:26:29.852Z,58.36
2022-09-28T14:29:17.649Z,58.43
2022-09-28T14:31:45.196Z,58.75
2022-09-28T14:34:44.988Z,58.86
2022-09-28T14:37:39.351Z,59.18
2022-09-28T14:40:39.991Z,58.62
2022-09-28T14:43:24.322Z,59.10
2022-09-28T14:45:54.387Z,59.60
2022-09-28T14:48:22.405Z,59.93
2022-09-28T14:50:49.884Z,59.42
2022-09-28T14:53:21.872Z,59.46
2022-09-28T14:55:51.804Z,59.59
2022-09-28T14:58:22.327Z,59.23
2022-09-28T15:00:51.492Z,59.69
2022-09-28T15:03:18.197Z,59.52
2022-09-28T15:05:49.564Z,59.79
2022-09-28T15:08:20.170Z,59.93
2022-09-28T15:10:48.409Z,59.71
2022-09-28T15:13:20.768Z,59.64
2022-09-28T15:15:50.424Z,59.57
2022-09-28T15:18:44.788Z,59.06
2022-09-28T15:21:12.411Z,59.20
2022-09-28T15:23:41.284Z,58.97
2022-09-28T15:26:38.708Z,58.18
2022-09-28T15:29:16.787Z,58.57
2022-09-28T15:31:43.270Z,58.55
2022-09-28T15:34:50.837Z,59.08
2022-09-28T15:37:40.656Z,59.08
2022-09-28T15:40:13.919Z,59.37
2022-09-28T15:42:40.366Z,59.55
2022-09-28T15:45:26.565Z,60.72
2022-09-28T15:47:58.245Z,62.32
2022-09-28T15:50:28.116Z,63.33
2022-09-28T15:53:02.975Z,64.65
2022-09-28T15:55:34.913Z,65.10
2022-09-28T15:58:17.666Z,66.65
2022-09-28T16:00:46.331Z,67.06
2022-09-28T16:03:15.764Z,67.32
2022-09-28T16:05:46.688Z,67.92
2022-09-28T16:08:21.155Z,68.03
2022-09-28T16:11:15.159Z,69.25
2022-09-28T16:14:02.440Z,69.19
2022-09-28T16:16:58.151Z,69.61
2022-09-28T16:19:37.746Z,69.75
2022-09-28T16:22:06.303Z,69.99
2022-09-28T16:24:37.400Z,70.41
2022-09-28T16:27:07.013Z,70.23
2022-09-28T16:29:41.304Z,70.30
2022-09-28T16:32:25.816Z,71.27
2022-09-28T16:35:07.228Z,71.04
2022-09-28T16:37:33.771Z,71.12
2022-09-28T16:40:00.269Z,71.14
2022-09-28T16:42:27.328Z,71.47
2022-09-28T16:44:56.341Z,71.26
2022-09-28T16:47:23.328Z,71.53
2022-09-28T16:49:49.763Z,71.61
2022-09-28T16:52:38.756Z,72.07
2022-09-28T16:58:04.744Z,72.40
2022-09-28T17:00:32.362Z,72.18
2022-09-28T17:02:59.091Z,72.21
2022-09-28T17:05:25.541Z,72.27
2022-09-28T17:08:03.461Z,72.13
2022-09-28T17:10:56.108Z,72.60
2022-09-28T17:13:35.906Z,72.85
2022-09-28T17:16:10.254Z,73.39
2022-09-28T17:18:38.972Z,73.58
2022-09-28T17:21:15.555Z,73.65
2022-09-28T17:23:43.459Z,73.48
2022-09-28T17:26:31.374Z,73.66
2022-09-28T17:28:59.245Z,73.68
2022-09-28T17:31:26.131Z,73.71
2022-09-28T17:33:52.649Z,73.51
2022-09-28T17:36:19.165Z,73.51
2022-09-28T17:38:46.714Z,73.38
2022-09-28T17:41:20.009Z,73.25
2022-09-28T17:43:46.821Z,73.42
2022-09-28T17:46:31.350Z,73.91
2022-09-28T17:48:59.759Z,73.86
2022-09-28T17:51:30.854Z,73.89
2022-09-28T17:53:57.937Z,73.92
2022-09-28T17:56:29.701Z,73.97
2022-09-28T17:59:01.016Z,73.98
2022-09-28T18:01:33.604Z,73.90
2022-09-28T18:04:01.667Z,74.25
2022-09-28T18:06:28.153Z,74.43
2022-09-28T18:08:54.738Z,74.83
2022-09-28T18:11:21.383Z,75.05
2022-09-28T18:13:47.778Z,75.34
2022-09-28T18:16:14.636Z,75.53
2022-09-28T18:18:41.187Z,75.72
2022-09-28T18:21:07.698Z,75.89
2022-09-28T18:23:38.252Z,75.85
2022-09-28T18:26:15.134Z,75.58
2022-09-28T18:28:41.624Z,75.51
2022-09-28T18:31:13.488Z,75.39
2022-09-28T18:33:40.628Z,75.10
2022-09-28T18:36:07.905Z,75.02
2022-09-28T18:38:38.032Z,74.98
2022-09-28T18:41:15.383Z,74.99
2022-09-28T18:43:51.280Z,74.82
2022-09-28T18:46:18.226Z,74.60
2022-09-28T18:48:45.092Z,74.47
2022-09-28T18:51:12.464Z,74.55
2022-09-28T18:53:39.911Z,74.32
2022-09-28T18:56:11.203Z,74.76
2022-09-28T18:58:38.848Z,74.83
2022-09-28T19:01:29.396Z,74.96
2022-09-28T19:04:01.740Z,74.96
2022-09-28T19:06:28.732Z,75.25
2022-09-28T19:08:56.121Z,75.47
2022-09-28T19:11:23.609Z,75.69
2022-09-28T19:13:50.296Z,75.58
2022-09-28T19:16:20.527Z,75.42
2022-09-28T19:18:47.594Z,75.17
2022-09-28T19:21:15.062Z,75.21
2022-09-28T19:23:48.087Z,75.18
2022-09-28T19:26:21.166Z,75.25
2022-09-28T19:28:50.988Z,75.26
2022-09-28T19:31:17.675Z,75.23
2022-09-28T19:33:46.556Z,75.04
2022-09-28T19:36:16.515Z,75.34
2022-09-28T19:38:42.937Z,75.50
2022-09-28T19:41:39.019Z,75.62
2022-09-28T19:44:06.404Z,75.14
2022-09-28T19:46:34.195Z,74.80
2022-09-28T19:49:06.050Z,75.30
2022-09-28T19:51:32.903Z,75.26
2022-09-28T19:54:01.540Z,75.22
2022-09-28T19:56:31.591Z,75.16
2022-09-28T19:58:58.973Z,75.33
2022-09-28T20:01:25.677Z,75.31
2022-09-28T20:03:54.248Z,75.38
2022-09-28T20:06:20.641Z,75.27
2022-09-28T20:08:47.244Z,75.35
2022-09-28T20:11:13.632Z,75.54
2022-09-28T20:13:40.020Z,75.22
2022-09-28T20:16:08.385Z,75.08
2022-09-28T20:18:36.580Z,75.04
2022-09-28T20:21:07.900Z,75.14
2022-09-28T20:23:36.068Z,74.79
2022-09-28T20:26:04.541Z,74.53
2022-09-28T20:28:31.555Z,74.01
2022-09-28T20:31:05.117Z,73.87
2022-09-28T20:33:32.977Z,74.03
2022-09-28T20:36:10.423Z,74.20
2022-09-28T20:38:40.372Z,74.45
2022-09-28T20:41:08.395Z,74.67
2022-09-28T20:43:35.129Z,74.22
2022-09-28T20:46:02.534Z,74.48
2022-09-28T20:48:29.502Z,74.98
2022-09-28T20:51:03.480Z,75.24
2022-09-28T20:53:33.169Z,75.13
2022-09-28T20:56:01.071Z,75.08
2022-09-28T20:58:27.853Z,75.45
2022-09-28T21:01:17.227Z,75.70
2022-09-28T21:03:49.212Z,75.98
2022-09-28T21:06:17.296Z,75.90
2022-09-28T21:08:44.426Z,75.93
2022-09-28T21:11:12.368Z,75.77
2022-09-28T21:13:41.423Z,76.42
2022-09-28T21:16:08.425Z,76.45
2022-09-28T21:18:38.808Z,76.45
2022-09-28T21:21:07.279Z,76.48
2022-09-28T21:23:34.340Z,76.47
2022-09-28T21:26:05.793Z,76.48
2022-09-28T21:28:32.904Z,76.74
2022-09-28T21:30:59.675Z,76.26
2022-09-28T21:33:26.148Z,76.39
2022-09-28T21:35:52.586Z,76.31
2022-09-28T21:38:19.052Z,75.78
2022-09-28T21:40:45.516Z,75.93
2022-09-28T21:43:11.999Z,76.11
2022-09-28T21:45:39.460Z,75.98
2022-09-28T21:48:05.862Z,75.67
2022-09-28T21:50:32.509Z,75.77
2022-09-28T21:52:59.337Z,75.85
2022-09-28T21:55:25.723Z,75.70
2022-09-28T21:57:52.150Z,75.75
2022-09-28T22:00:23.040Z,75.70
2022-09-28T22:02:49.980Z,76.09
2022-09-28T22:05:16.827Z,75.77
2022-09-28T22:07:43.336Z,75.87
2022-09-28T22:10:13.952Z,76.00
2022-09-28T22:12:40.571Z,76.21
2022-09-28T22:15:07.576Z,76.31
2022-09-28T22:17:34.063Z,76.43
2022-09-28T22:20:00.625Z,76.28
2022-09-28T22:22:29.204Z,76.45
2022-09-28T22:24:56.093Z,76.64
2022-09-28T22:27:22.529Z,76.57
2022-09-28T22:29:49.089Z,76.53
2022-09-28T22:32:15.515Z,76.74
2022-09-28T22:34:41.896Z,77.12
2022-09-28T22:37:08.307Z,77.06
2022-09-28T22:39:37.705Z,77.21
2022-09-28T22:42:04.561Z,77.69
2022-09-28T22:44:31.007Z,77.53
2022-09-28T22:46:57.960Z,77.45
2022-09-28T22:49:24.419Z,78.01
2022-09-28T22:51:50.808Z,78.20
2022-09-28T22:54:17.390Z,78.21
2022-09-28T22:56:44.056Z,78.55
2022-09-28T22:59:11.523Z,78.41
2022-09-28T23:01:38.422Z,78.65
2022-09-28T23:04:05.101Z,78.88
2022-09-28T23:06:32.958Z,79.06
2022-09-28T23:09:00.112Z,79.07
2022-09-28T23:11:27.439Z,79.17
2022-09-28T23:13:56.002Z,79.12
2022-09-28T23:16:24.696Z,79.08
2022-09-28T23:18:52.338Z,79.16
2022-09-28T23:21:20.561Z,79.47
2022-09-28T23:23:52.259Z,79.55
2022-09-28T23:26:26.919Z,79.87
2022-09-28T23:28:54.186Z,80.16
2022-09-28T23:31:23.300Z,80.08
2022-09-28T23:33:50.264Z,80.42
2022-09-28T23:36:17.408Z,80.69
2022-09-28T23:38:44.060Z,80.73
2022-09-28T23:41:10.724Z,80.75
2022-09-28T23:43:37.284Z,80.95
2022-09-28T23:46:04.898Z,81.32
2022-09-28T23:48:31.456Z,81.49
2022-09-28T23:50:57.982Z,81.71
2022-09-28T23:53:24.661Z,81.85
2022-09-28T23:55:51.120Z,81.90
2022-09-28T23:58:17.537Z,81.98
